Time;durP1;ratioP1;P1;durP2;ratioP2;P2;SDS_P1;SDS_P2;PMS_P1;PMS_P2;Temp;Humidity;BMP_temperature;BMP_pressure;BME280_temperature;BME280_humidity;BME280_pressure;Samples;Min_cycle;Max_cycle;Signal;HPM_P1;HPM_P2
2022/09/29 00:01:53;;;;;;;5.80;3.78;;;;;;;8.21;64.27;98368.91;10397964;28;20052;-78
2022/09/29 00:06:55;;;;;;;6.72;3.78;;;;;;;8.02;64.25;98375.47;10399544;28;20052;-79
2022/09/29 00:11:56;;;;;;;8.05;3.55;;;;;;;7.85;64.38;98383.66;10398381;28;20053;-78
2022/09/29 00:16:58;;;;;;;6.28;3.67;;;;;;;7.79;64.45;98389.31;10399150;28;20056;-77
2022/09/29 00:22:00;;;;;;;8.95;3.55;;;;;;;7.68;64.65;98381.47;10414468;28;20049;-78
2022/09/29 00:27:02;;;;;;;9.43;3.80;;;;;;;7.53;64.51;98382.56;10398181;28;20053;-78
2022/09/29 00:32:04;;;;;;;6.15;3.80;;;;;;;7.49;64.89;98381.13;10398796;28;20064;-78
2022/09/29 00:37:05;;;;;;;8.00;4.00;;;;;;;7.47;65.02;98387.41;10413175;28;20046;-78
2022/09/29 00:42:11;;;;;;;12.02;4.40;;;;;;;7.41;64.97;98388.66;10399518;28;21038;-78
2022/09/29 00:47:16;;;;;;;10.90;3.80;;;;;;;7.32;64.99;98373.72;10417780;28;20057;-78
2022/09/29 00:52:39;;;;;;;9.90;3.80;;;;;;;7.14;65.19;98385.44;10411295;28;20060;-78
2022/09/29 00:57:46;;;;;;;14.30;4.30;;;;;;;7.09;65.18;98393.53;10412801;28;20056;-78
2022/09/29 01:03:03;;;;;;;10.05;4.43;;;;;;;6.99;65.21;98386.47;10413809;28;20499;-79
2022/09/29 01:08:21;;;;;;;13.27;4.18;;;;;;;6.94;65.53;98386.81;10398401;28;20049;-78
2022/09/29 01:13:23;;;;;;;9.63;4.47;;;;;;;6.86;65.24;98383.91;10413969;28;20068;-78
2022/09/29 01:18:25;;;;;;;8.10;4.03;;;;;;;6.75;65.16;98383.81;10411644;28;20053;-78
2022/09/29 01:24:01;;;;;;;34.55;5.07;;;;;;;6.66;65.39;98383.59;10415250;28;20104;-78
2022/09/29 01:29:15;;;;;;;19.20;4.85;;;;;;;6.81;65.59;98377.38;10397069;28;20426;-79
2022/09/29 01:34:33;;;;;;;45.95;5.47;;;;;;;6.79;65.35;98379.25;10413436;28;20067;-78
2022/09/29 01:40:01;;;;;;;25.65;4.28;;;;;;;6.66;65.99;98378.41;10396108;28;20060;-78
2022/09/29 01:45:17;;;;;;;25.80;4.47;;;;;;;6.66;66.11;98386.19;10401887;28;20049;-78
2022/09/29 01:50:34;;;;;;;246.88;8.13;;;;;;;6.52;66.64;98386.31;10395107;28;20502;-78
2022/09/29 01:55:45;;;;;;;334.30;9.60;;;;;;;6.58;66.13;98388.50;10397976;28;20057;-77
2022/09/29 02:00:53;;;;;;;45.75;4.72;;;;;;;6.56;66.77;98392.97;10395965;28;20061;-78
2022/09/29 02:06:03;;;;;;;65.57;4.90;;;;;;;6.75;66.81;98393.38;10402546;28;20041;-78
2022/09/29 02:11:07;;;;;;;82.47;5.93;;;;;;;6.88;66.19;98382.03;10405955;28;20052;-79
2022/09/29 02:16:14;;;;;;;88.85;7.60;;;;;;;6.87;66.36;98389.94;10412317;28;20045;-78
2022/09/29 02:21:16;;;;;;;60.70;5.50;;;;;;;6.78;66.58;98391.41;10410295;28;20049;-78
2022/09/29 02:26:19;;;;;;;185.65;7.55;;;;;;;6.77;66.91;98397.53;10425333;28;20060;-78
2022/09/29 02:31:20;;;;;;;127.80;7.50;;;;;;;6.80;66.68;98396.47;10426484;28;20057;-78
2022/09/29 02:37:01;;;;;;;79.07;6.80;;;;;;;6.92;66.77;98398.22;10427156;28;20713;-78
2022/09/29 02:42:34;;;;;;;155.70;7.50;;;;;;;7.10;66.43;98397.78;10409561;28;20049;-79
2022/09/29 02:47:59;;;;;;;112.70;8.13;;;;;;;7.05;66.26;98399.06;10426898;28;20650;-78
2022/09/29 02:53:31;;;;;;;356.90;11.52;;;;;;;6.95;66.11;98404.06;10408033;28;20053;-78
2022/09/29 02:59:03;;;;;;;185.05;9.10;;;;;;;6.93;66.63;98412.91;10416936;28;20088;-78
2022/09/29 03:04:07;;;;;;;232.30;9.40;;;;;;;6.91;66.55;98404.38;10403671;28;20140;-78
2022/09/29 03:09:08;;;;;;;180.68;9.52;;;;;;;6.87;66.59;98408.13;10404151;28;20519;-78
2022/09/29 03:14:11;;;;;;;273.58;10.20;;;;;;;6.75;67.08;98398.56;10417886;28;20045;-78
2022/09/29 03:19:13;;;;;;;194.13;9.15;;;;;;;6.80;67.01;98399.06;10418305;28;20061;-78
2022/09/29 03:24:14;;;;;;;326.38;10.55;;;;;;;6.71;66.93;98397.97;10398894;28;20049;-78
2022/09/29 03:29:16;;;;;;;260.45;9.68;;;;;;;6.87;67.22;98397.72;10400915;28;20053;-78
2022/09/29 03:34:18;;;;;;;281.45;10.65;;;;;;;6.87;67.01;98395.97;10401760;28;20056;-78
2022/09/29 03:39:20;;;;;;;366.50;12.27;;;;;;;6.91;66.93;98393.97;10402830;28;20064;-78
2022/09/29 03:44:22;;;;;;;229.73;10.70;;;;;;;6.82;66.71;98399.81;10399159;28;20052;-78
2022/09/29 03:49:23;;;;;;;206.32;8.32;;;;;;;6.90;67.02;98408.75;10400712;28;20948;-78
2022/09/29 04:00:48;;;;;;;275.98;11.02;;;;;;;7.12;66.37;98414.09;10416470;28;20045;-78
2022/09/29 04:05:50;;;;;;;513.22;18.08;;;;;;;7.00;66.03;98424.53;10418140;28;20057;-78
2022/09/29 04:10:52;;;;;;;203.55;9.13;;;;;;;6.69;66.67;98432.78;10419500;28;20053;-78
2022/09/29 04:15:59;;;;;;;221.25;9.40;;;;;;;6.65;66.76;98433.91;10400855;28;20060;-78
2022/09/29 04:21:07;;;;;;;120.95;6.93;;;;;;;6.54;67.02;98429.44;10399891;28;20045;-78
2022/09/29 04:26:09;;;;;;;83.03;9.18;;;;;;;6.59;66.63;98447.31;10414086;28;20111;-78
2022/09/29 04:31:12;;;;;;;106.68;6.00;;;;;;;6.46;66.91;98441.25;10415409;28;20060;-78
2022/09/29 04:36:14;;;;;;;126.35;8.93;;;;;;;6.33;66.85;98449.88;10412647;28;20040;-78
2022/09/29 04:41:16;;;;;;;145.00;8.95;;;;;;;6.29;66.97;98448.41;10398132;28;20487;-78
2022/09/29 04:46:18;;;;;;;112.40;7.10;;;;;;;6.33;67.13;98447.25;10412010;28;20060;-78
2022/09/29 04:51:20;;;;;;;554.03;18.77;;;;;;;6.26;66.88;98450.38;10412232;28;20762;-78
2022/09/29 04:56:21;;;;;;;140.63;7.65;;;;;;;6.33;67.62;98455.06;10412971;28;20061;-78
2022/09/29 05:01:23;;;;;;;131.70;8.65;;;;;;;6.51;67.21;98450.41;10414209;28;20631;-78
2022/09/29 05:06:25;;;;;;;157.80;8.15;;;;;;;6.56;67.24;98450.09;10398825;28;20457;-78
2022/09/29 05:11:27;;;;;;;160.23;10.98;;;;;;;6.61;67.00;98456.66;10399320;28;20056;-77
2022/09/29 05:16:29;;;;;;;117.10;7.50;;;;;;;6.59;67.10;98460.28;10394337;28;20053;-77
2022/09/29 05:21:30;;;;;;;238.32;11.38;;;;;;;6.81;66.73;98465.72;10395867;28;20049;-77
2022/09/29 05:26:32;;;;;;;231.52;12.25;;;;;;;6.76;66.59;98467.78;10397343;28;20052;-78
2022/09/29 05:31:34;;;;;;;267.40;11.43;;;;;;;6.80;66.73;98464.88;10392277;28;20059;-77
2022/09/29 05:36:36;;;;;;;180.80;10.35;;;;;;;6.94;66.74;98476.91;10398104;28;20456;-78
2022/09/29 05:41:38;;;;;;;184.35;31.92;;;;;;;6.89;66.63;98468.63;10413853;28;20057;-78
2022/09/29 05:46:40;;;;;;;69.47;12.35;;;;;;;6.94;66.98;98469.97;10394352;28;20047;-78
2022/09/29 05:51:41;;;;;;;169.60;12.52;;;;;;;7.15;66.28;98472.88;10396367;28;20056;-78
2022/09/29 05:56:43;;;;;;;221.77;16.00;;;;;;;6.95;66.52;98476.00;10398119;28;20517;-77
2022/09/29 06:01:46;;;;;;;125.47;11.07;;;;;;;6.97;66.63;98487.13;10410918;28;20056;-78
2022/09/29 06:06:47;;;;;;;38.45;7.68;;;;;;;6.97;66.79;98487.13;10395559;28;20107;-78
2022/09/29 06:11:49;;;;;;;110.63;15.73;;;;;;;6.92;66.75;98487.44;10412430;28;20082;-78
2022/09/29 06:16:51;;;;;;;62.03;9.43;;;;;;;6.94;67.14;98488.16;10397689;28;20491;-77
2022/09/29 06:21:52;;;;;;;101.55;14.02;;;;;;;7.06;66.95;98483.91;10395596;28;20052;-77
2022/09/29 06:26:54;;;;;;;249.27;15.77;;;;;;;7.11;66.81;98492.22;10411504;28;20056;-77
2022/09/29 06:31:59;;;;;;;118.78;11.70;;;;;;;7.17;66.73;98492.63;10389783;28;20057;-77
2022/09/29 06:42:21;;;;;;;28.10;8.70;;;;;;;7.05;66.77;98496.06;10408479;28;20056;-77
2022/09/29 06:47:23;;;;;;;95.25;11.05;;;;;;;7.18;66.25;98493.47;10395793;28;20502;-77
2022/09/29 06:52:25;;;;;;;236.82;14.15;;;;;;;7.22;66.24;98507.09;10394827;28;20081;-78
2022/09/29 06:57:30;;;;;;;110.43;11.18;;;;;;;7.36;65.89;98502.59;10399555;28;20073;-77
2022/09/29 07:02:32;;;;;;;513.53;22.60;;;;;;;7.43;65.18;98511.63;10418957;28;20053;-77
2022/09/29 07:07:33;;;;;;;379.45;18.17;;;;;;;7.32;65.66;98503.75;10401190;28;20041;-77
2022/09/29 07:12:35;;;;;;;32.38;7.78;;;;;;;7.33;66.24;98505.41;10403317;28;20419;-77
2022/09/29 07:17:37;;;;;;;79.45;10.07;;;;;;;7.67;65.63;98509.09;10402511;28;20518;-77
2022/09/29 07:22:38;;;;;;;411.40;17.67;;;;;;;7.76;65.21;98509.28;10403261;28;20448;-77
2022/09/29 07:27:40;;;;;;;178.02;12.85;;;;;;;7.75;64.92;98514.59;10422572;28;20053;-77
2022/09/29 07:32:42;;;;;;;116.43;13.60;;;;;;;7.67;64.95;98522.91;10402831;28;20507;-77
2022/09/29 07:37:58;;;;;;;173.88;12.63;;;;;;;7.69;65.24;98521.03;10421681;28;20054;-77
2022/09/29 07:42:59;;;;;;;100.60;15.45;;;;;;;7.72;65.21;98525.19;10420935;28;20064;-78
2022/09/29 07:48:01;;;;;;;52.10;9.15;;;;;;;7.63;65.14;98529.28;10418662;28;20056;-77
2022/09/29 07:53:03;;;;;;;56.45;9.18;;;;;;;7.67;65.60;98529.91;10419107;28;20098;-77
2022/09/29 07:58:05;;;;;;;133.40;13.98;;;;;;;7.80;64.75;98534.13;10416500;28;20056;-77
2022/09/29 08:03:07;;;;;;;193.50;15.20;;;;;;;7.87;64.63;98535.38;10402961;28;20053;-77
2022/09/29 08:08:09;;;;;;;177.80;13.88;;;;;;;7.77;64.66;98539.53;10414472;28;20969;-77
2022/09/29 08:13:11;;;;;;;465.08;24.50;;;;;;;7.61;64.58;98544.16;10399989;28;20052;-77
2022/09/29 08:18:12;;;;;;;80.28;11.48;;;;;;;7.61;65.44;98549.38;10416849;28;20419;-77
2022/09/29 08:23:14;;;;;;;49.28;9.48;;;;;;;7.99;65.06;98552.72;10415312;28;20533;-77
2022/09/29 08:28:16;;;;;;;208.70;15.23;;;;;;;8.12;64.26;98555.31;10417181;28;20057;-77
2022/09/29 08:33:31;;;;;;;54.45;10.93;;;;;;;8.41;64.16;98559.25;10402324;28;20048;-77
2022/09/29 08:38:33;;;;;;;29.02;10.38;;;;;;;8.68;63.86;98566.84;10416704;28;20076;-77
2022/09/29 08:43:42;;;;;;;59.78;11.35;;;;;;;8.92;63.28;98574.59;10400027;28;20415;-77
2022/09/29 08:48:44;;;;;;;46.47;10.52;;;;;;;9.00;62.69;98578.31;10415913;28;20060;-77
2022/09/29 08:54:01;;;;;;;48.88;11.32;;;;;;;9.00;62.70;98580.91;10402577;28;20140;-77
2022/09/29 08:59:04;;;;;;;21.35;9.07;;;;;;;9.17;62.42;98579.66;10399375;28;20080;-77
2022/09/29 09:04:26;;;;;;;9.82;7.47;;;;;;;9.31;61.39;98574.22;10399902;28;20049;-77
2022/09/29 09:09:54;;;;;;;11.40;8.30;;;;;;;9.41;61.09;98586.47;10398109;28;20060;-77
2022/09/29 09:15:08;;;;;;;14.98;9.73;;;;;;;9.66;60.95;98588.06;10397998;28;20156;-78
2022/09/29 09:20:19;;;;;;;24.52;10.38;;;;;;;9.73;60.16;98583.22;10414634;28;20063;-78
2022/09/29 09:25:33;;;;;;;14.23;8.98;;;;;;;9.71;60.61;98583.31;10396195;28;20052;-77
2022/09/29 09:31:09;;;;;;;15.60;9.48;;;;;;;9.61;60.52;98583.16;10397809;28;20438;-77
2022/09/29 09:36:18;;;;;;;13.00;8.85;;;;;;;9.67;60.91;98583.69;10415043;28;20140;-77
2022/09/29 09:41:36;;;;;;;15.38;10.18;;;;;;;9.87;60.63;98583.75;10400655;28;20136;-77
2022/09/29 09:46:55;;;;;;;13.93;10.75;;;;;;;9.92;60.32;98581.66;10414706;28;20054;-77
2022/09/29 09:52:02;;;;;;;15.25;11.35;;;;;;;9.64;61.15;98590.78;10397151;28;20499;-77
2022/09/29 09:57:35;;;;;;;13.00;9.48;;;;;;;9.89;60.28;98594.13;10413919;28;20055;-77
2022/09/29 10:02:44;;;;;;;10.43;8.63;;;;;;;10.49;59.70;98579.63;10413060;28;20154;-77
2022/09/29 10:07:49;;;;;;;11.73;9.18;;;;;;;10.76;58.61;98581.78;10398511;28;20049;-77
2022/09/29 10:13:00;;;;;;;11.38;8.65;;;;;;;10.66;58.59;98587.88;10414156;28;20515;-77
2022/09/29 10:18:17;;;;;;;11.15;9.05;;;;;;;10.93;58.33;98583.03;10412497;28;20045;-77
2022/09/29 10:23:26;;;;;;;10.68;8.63;;;;;;;11.13;57.43;98593.50;10412097;28;20159;-77
2022/09/29 10:28:38;;;;;;;12.23;8.60;;;;;;;11.11;57.57;98584.16;10410237;28;20061;-77
2022/09/29 10:33:47;;;;;;;11.23;8.85;;;;;;;10.91;58.06;98590.16;10417294;28;20049;-78
2022/09/29 10:38:52;;;;;;;15.38;8.95;;;;;;;11.01;58.69;98585.84;10420422;28;20053;-77
2022/09/29 10:43:53;;;;;;;12.40;9.55;;;;;;;10.97;58.68;98580.00;10418189;28;20067;-77
2022/09/29 10:49:15;;;;;;;13.45;10.10;;;;;;;10.81;59.15;98584.00;10403876;28;20495;-77
2022/09/29 10:54:17;;;;;;;14.52;9.65;;;;;;;10.76;59.81;98581.78;10416362;28;21178;-76
2022/09/29 10:59:22;;;;;;;13.18;9.48;;;;;;;10.81;59.18;98592.69;10419765;28;20050;-77
2022/09/29 11:04:29;;;;;;;14.50;9.45;;;;;;;11.05;58.40;98585.47;10420569;28;20534;-77
2022/09/29 11:09:37;;;;;;;11.65;8.20;;;;;;;11.26;57.49;98586.31;10399410;28;20680;-76
2022/09/29 11:14:41;;;;;;;13.65;8.32;;;;;;;11.35;57.50;98589.13;10419833;28;20087;-76
2022/09/29 11:19:43;;;;;;;10.82;7.75;;;;;;;11.30;57.21;98582.47;10417422;28;20061;-76
2022/09/29 11:24:47;;;;;;;11.55;7.40;;;;;;;11.42;56.45;98587.66;10415890;28;20057;-76
2022/09/29 11:30:06;;;;;;;13.13;7.57;;;;;;;11.75;56.29;98582.16;10404094;28;20079;-77
2022/09/29 11:35:37;;;;;;;17.15;10.05;;;;;;;12.02;55.36;98580.63;10417390;28;20053;-76
2022/09/29 11:41:07;;;;;;;17.57;10.67;;;;;;;12.09;56.35;98580.88;10419242;28;20522;-76
2022/09/29 11:46:19;;;;;;;12.57;7.93;;;;;;;12.32;55.41;98582.38;10420219;28;20045;-76
2022/09/29 11:51:27;;;;;;;11.43;7.30;;;;;;;12.62;54.41;98587.50;10414766;28;20057;-76
2022/09/29 11:56:43;;;;;;;12.63;7.40;;;;;;;12.49;55.20;98579.09;10399481;28;20056;-76
2022/09/29 12:01:53;;;;;;;12.30;7.60;;;;;;;12.49;54.27;98573.84;10398390;28;20057;-76
2022/09/29 12:07:05;;;;;;;15.65;8.18;;;;;;;12.77;53.72;98574.81;10394724;28;21855;-76
2022/09/29 12:12:13;;;;;;;12.85;8.15;;;;;;;12.78;54.20;98569.41;10410471;28;20053;-76
2022/09/29 12:17:35;;;;;;;14.32;8.10;;;;;;;12.87;54.38;98571.22;10400162;28;20490;-76
2022/09/29 12:29:08;;;;;;;10.57;5.10;;;;;;;13.59;52.70;98562.84;10412913;28;20170;-76
2022/09/29 12:34:13;;;;;;;;;;;;;;;13.77;53.47;98566.38;10398863;28;20518;-76
2022/09/29 12:39:31;;;;;;;12.30;5.10;;;;;;;14.11;52.05;98561.34;10412241;28;19932;-76
2022/09/29 12:44:49;;;;;;;9.73;4.10;;;;;;;14.47;51.45;98566.50;10415225;28;20053;-77
2022/09/29 12:50:04;;;;;;;6.63;3.90;;;;;;;14.63;49.16;98558.00;10413113;28;20052;-76
2022/09/29 12:55:16;;;;;;;10.43;4.25;;;;;;;14.68;49.87;98562.78;10417600;28;21079;-77
2022/09/29 13:00:18;;;;;;;8.23;3.17;;;;;;;14.84;49.31;98560.34;10415395;28;20818;-77
2022/09/29 13:05:38;;;;;;;6.07;3.20;;;;;;;14.77;48.97;98554.00;10395940;28;20064;-76
2022/09/29 13:11:06;;;;;;;8.27;2.80;;;;;;;14.73;48.62;98553.50;10411460;28;20058;-76
2022/09/29 13:16:14;;;;;;;6.53;3.00;;;;;;;14.94;48.98;98553.97;10371360;28;20049;-76
2022/09/29 13:21:25;;;;;;;6.45;2.50;;;;;;;14.63;48.48;98558.00;10413740;28;20064;-76
2022/09/29 13:26:29;;;;;;;7.15;2.33;;;;;;;14.52;47.43;98559.06;10409781;28;20060;-76
2022/09/29 13:31:37;;;;;;;5.93;2.70;;;;;;;15.05;48.33;98552.91;10392718;28;20057;-76
2022/09/29 13:36:43;;;;;;;5.45;2.60;;;;;;;15.29;46.63;98543.41;10407804;28;20049;-76
2022/09/29 13:41:45;;;;;;;6.38;2.75;;;;;;;15.30;46.94;98547.69;10392204;28;20053;-76
2022/09/29 13:46:47;;;;;;;6.00;2.03;;;;;;;15.34;46.10;98540.31;10395114;28;20052;-76
2022/09/29 13:51:55;;;;;;;3.63;1.40;;;;;;;15.42;44.67;98553.53;10412709;28;20052;-76
2022/09/29 13:57:19;;;;;;;3.58;1.35;;;;;;;15.51;41.22;98563.16;10414102;28;20045;-76
2022/09/29 14:02:38;;;;;;;2.83;1.15;;;;;;;15.62;39.92;98554.16;10406638;28;20108;-76
2022/09/29 14:07:48;;;;;;;5.43;1.30;;;;;;;15.89;41.07;98560.06;10416969;28;20053;-76
2022/09/29 14:13:21;;;;;;;4.93;1.40;;;;;;;16.10;39.79;98570.22;10405774;28;20073;-76
2022/09/29 14:19:06;;;;;;;6.10;1.60;;;;;;;16.23;38.94;98560.84;10423065;28;20095;-77
2022/09/29 14:24:39;;;;;;;3.03;1.13;;;;;;;16.34;37.79;98559.75;10422329;28;20056;-76
2022/09/29 14:29:47;;;;;;;4.22;1.10;;;;;;;16.55;37.75;98565.41;10398500;28;20069;-77
2022/09/29 14:34:52;;;;;;;3.45;1.42;;;;;;;16.87;39.44;98569.91;10417713;28;20060;-76
2022/09/29 14:56:33;;;;;;;5.15;1.88;;;;;;;16.39;39.75;98590.91;10417886;28;20049;-76
2022/09/29 15:01:55;;;;;;;3.97;1.55;;;;;;;16.05;41.08;98589.16;10418953;28;20049;-76
2022/09/29 15:07:03;;;;;;;5.30;1.50;;;;;;;15.54;40.86;98599.75;10419736;28;20049;-76
2022/09/29 15:12:19;;;;;;;4.43;1.50;;;;;;;15.34;42.48;98601.72;10401127;28;20136;-76
2022/09/29 15:17:42;;;;;;;3.88;1.52;;;;;;;15.29;42.39;98609.25;10413461;28;20486;-76
2022/09/29 15:23:19;;;;;;;4.82;1.30;;;;;;;15.38;41.29;98608.34;10414986;28;20057;-76
2022/09/29 15:28:37;;;;;;;3.20;1.55;;;;;;;15.04;43.87;98610.00;10411908;28;20057;-76
2022/09/29 15:33:42;;;;;;;4.95;1.80;;;;;;;14.52;45.01;98616.94;10394750;28;20438;-76
2022/09/29 15:38:44;;;;;;;6.65;1.95;;;;;;;14.25;45.94;98623.97;10409079;28;20045;-76
2022/09/29 15:44:12;;;;;;;4.75;1.85;;;;;;;14.03;46.86;98637.47;10400584;28;20049;-76
2022/09/29 15:49:21;;;;;;;4.25;1.80;;;;;;;13.82;47.47;98632.44;10396644;28;20052;-75
2022/09/29 15:54:33;;;;;;;6.93;2.67;;;;;;;13.82;47.40;98639.50;10408568;28;20053;-76
2022/09/29 15:59:40;;;;;;;5.53;2.22;;;;;;;13.72;48.14;98656.13;10419049;28;20071;-76
2022/09/29 16:04:44;;;;;;;6.88;2.00;;;;;;;13.61;48.98;98658.94;10396427;28;20053;-77
2022/09/29 16:09:46;;;;;;;6.40;2.22;;;;;;;13.49;49.65;98664.47;10398332;28;20046;-76
2022/09/29 16:14:54;;;;;;;4.88;2.25;;;;;;;13.41;50.25;98678.25;10399815;28;20053;-76
2022/09/29 16:19:59;;;;;;;5.03;2.50;;;;;;;13.46;49.90;98683.13;10402952;28;20045;-76
2022/09/29 16:25:28;;;;;;;5.38;2.50;;;;;;;13.33;50.57;98688.63;10411072;28;20061;-76
2022/09/29 16:30:39;;;;;;;6.80;2.60;;;;;;;13.32;51.26;98697.50;10416148;28;20058;-76
2022/09/29 16:35:49;;;;;;;4.55;2.00;;;;;;;13.34;51.05;98703.44;10415946;28;20059;-76
2022/09/29 16:40:55;;;;;;;5.45;2.00;;;;;;;13.35;51.07;98707.69;10416338;28;20063;-76
2022/09/29 16:46:01;;;;;;;6.63;2.67;;;;;;;13.11;52.06;98706.47;10395545;28;20064;-76
2022/09/29 16:51:11;;;;;;;7.30;2.33;;;;;;;12.93;52.96;98715.00;10397541;28;20107;-76
2022/09/29 16:56:34;;;;;;;8.13;3.42;;;;;;;12.89;53.54;98718.03;10399108;28;20427;-76
2022/09/29 17:01:38;;;;;;;5.13;2.50;;;;;;;12.77;54.35;98725.19;10389826;28;20396;-76
2022/09/29 17:06:46;;;;;;;9.23;2.63;;;;;;;12.67;55.14;98739.25;10413588;28;20049;-77
2022/09/29 17:11:48;;;;;;;8.63;2.80;;;;;;;12.58;55.13;98735.63;10412901;28;20063;-76
2022/09/29 17:16:50;;;;;;;6.60;2.72;;;;;;;12.52;55.66;98740.56;10397355;28;20049;-76
2022/09/29 17:21:54;;;;;;;8.98;3.08;;;;;;;12.41;56.09;98741.50;10392891;28;20156;-76
2022/09/29 17:32:16;;;;;;;6.03;3.03;;;;;;;12.21;56.47;98752.84;10413949;28;20538;-78
2022/09/29 17:37:18;;;;;;;8.10;3.00;;;;;;;12.16;56.79;98757.63;10414953;28;20045;-76
2022/09/29 17:42:25;;;;;;;9.05;2.72;;;;;;;12.11;57.22;98771.13;10397802;28;20422;-76
2022/09/29 17:47:27;;;;;;;7.07;2.60;;;;;;;12.05;57.01;98778.66;10414789;28;20051;-76
2022/09/29 17:52:33;;;;;;;8.35;2.53;;;;;;;11.75;57.87;98789.06;10415886;28;20148;-77
2022/09/29 17:57:35;;;;;;;6.32;2.80;;;;;;;11.60;58.62;98788.53;10403274;28;20403;-77
2022/09/29 18:02:36;;;;;;;8.18;2.70;;;;;;;11.42;59.03;98794.47;10409168;28;20053;-77
2022/09/29 18:07:38;;;;;;;7.20;3.00;;;;;;;11.30;59.38;98798.88;10407282;28;20042;-77
2022/09/29 18:12:40;;;;;;;7.97;2.95;;;;;;;11.11;59.62;98807.38;10391329;28;20068;-77
2022/09/29 18:17:43;;;;;;;7.07;2.97;;;;;;;10.94;60.01;98807.84;10389421;28;20387;-77
2022/09/29 18:22:47;;;;;;;6.38;2.90;;;;;;;10.71;60.83;98816.66;10403521;28;20045;-77
2022/09/29 18:27:48;;;;;;;10.27;4.00;;;;;;;10.65;60.94;98822.38;10405357;28;20136;-77
2022/09/29 18:32:54;;;;;;;6.20;3.85;;;;;;;10.50;61.62;98826.19;10391875;28;20057;-75
2022/09/29 18:37:57;;;;;;;7.75;4.07;;;;;;;10.47;61.67;98829.00;10397218;28;20061;-77
2022/09/29 18:43:11;;;;;;;6.28;4.05;;;;;;;10.44;62.14;98839.69;10414684;28;20060;-77
2022/09/29 18:48:14;;;;;;;6.22;4.13;;;;;;;10.32;61.84;98849.31;10407679;28;20048;-76
2022/09/29 18:53:19;;;;;;;11.13;4.40;;;;;;;10.25;62.24;98852.50;10396888;28;20057;-77
2022/09/29 18:58:21;;;;;;;8.25;3.35;;;;;;;10.22;62.19;98861.41;10404056;28;20056;-77
2022/09/29 19:03:26;;;;;;;8.52;5.20;;;;;;;10.01;62.48;98865.59;10398846;28;20049;-77
2022/09/29 19:08:28;;;;;;;5.95;3.70;;;;;;;9.86;62.88;98871.97;10417919;28;20052;-77
2022/09/29 19:13:30;;;;;;;8.52;3.50;;;;;;;9.84;62.79;98883.47;10403455;28;20049;-77
2022/09/29 19:18:32;;;;;;;9.25;3.50;;;;;;;9.67;63.28;98892.53;10425570;28;20064;-77
2022/09/29 19:23:33;;;;;;;7.28;3.30;;;;;;;9.61;63.18;98900.78;10426553;28;20052;-77
2022/09/29 19:28:35;;;;;;;4.88;2.97;;;;;;;9.58;62.99;98914.88;10417029;28;20064;-78
2022/09/29 19:33:39;;;;;;;8.48;3.72;;;;;;;9.49;63.24;98915.53;10418736;28;20095;-78
2022/09/29 19:38:41;;;;;;;5.70;3.08;;;;;;;9.30;63.66;98917.78;10417701;28;20045;-77
2022/09/29 19:43:44;;;;;;;7.28;3.85;;;;;;;9.21;63.69;98922.81;10420634;28;20057;-77
2022/09/29 19:48:46;;;;;;;9.60;3.33;;;;;;;9.14;63.76;98932.84;10416398;28;20045;-78
2022/09/29 19:53:49;;;;;;;10.30;4.00;;;;;;;9.02;63.97;98935.47;10398580;28;20049;-78
2022/09/29 19:58:50;;;;;;;7.22;3.75;;;;;;;8.92;63.99;98945.69;10415075;28;20414;-77
2022/09/29 20:03:52;;;;;;;8.30;3.67;;;;;;;8.80;63.90;98949.16;10399192;28;20057;-77
2022/09/29 20:08:54;;;;;;;7.25;3.60;;;;;;;8.45;64.35;98963.69;10418550;28;20044;-78
2022/09/29 20:13:55;;;;;;;8.10;3.75;;;;;;;8.25;64.91;98969.38;10415161;28;20049;-77
2022/09/29 20:18:57;;;;;;;6.30;3.63;;;;;;;8.35;65.12;98970.44;10417094;28;20064;-77
2022/09/29 20:24:00;;;;;;;6.68;3.92;;;;;;;8.42;64.86;98966.53;10400840;28;20061;-78
2022/09/29 20:29:03;;;;;;;11.50;4.32;;;;;;;8.37;64.96;98976.41;10399318;28;20068;-78
2022/09/29 20:34:06;;;;;;;7.35;4.30;;;;;;;8.32;64.90;98978.50;10398002;28;20053;-78
2022/09/29 20:39:09;;;;;;;9.63;4.72;;;;;;;8.29;64.89;98981.28;10418508;28;20087;-78
2022/09/29 20:44:11;;;;;;;6.93;3.72;;;;;;;8.26;65.12;98981.50;10398856;28;20053;-78
2022/09/29 20:49:13;;;;;;;7.35;3.78;;;;;;;8.20;64.88;98997.53;10397100;28;20176;-78
2022/09/29 20:54:16;;;;;;;13.82;6.80;;;;;;;8.16;64.74;99009.88;10418126;28;20056;-78
2022/09/29 20:59:21;;;;;;;7.60;4.00;;;;;;;8.14;64.93;99009.16;10400717;28;20152;-78
2022/09/29 21:04:24;;;;;;;9.95;4.05;;;;;;;7.84;64.86;99021.47;10414779;28;20045;-78
2022/09/29 21:09:26;;;;;;;5.70;3.67;;;;;;;7.80;65.38;99028.66;10394934;28;20048;-78
2022/09/29 21:14:28;;;;;;;8.13;5.20;;;;;;;7.83;65.36;99032.84;10412991;28;20057;-78
2022/09/29 21:19:30;;;;;;;10.18;4.15;;;;;;;7.82;65.06;99042.41;10398225;28;20059;-77
2022/09/29 21:24:33;;;;;;;6.45;3.83;;;;;;;7.54;64.96;99050.25;10394572;28;20510;-78
2022/09/29 21:29:35;;;;;;;10.95;5.00;;;;;;;7.33;65.20;99050.72;10414617;28;20064;-77
2022/09/29 21:34:36;;;;;;;7.57;3.70;;;;;;;7.11;65.71;99053.78;10411440;28;20064;-78
2022/09/29 21:39:38;;;;;;;8.80;4.63;;;;;;;7.24;65.64;99049.53;10415976;28;20072;-78
2022/09/29 21:44:40;;;;;;;9.50;4.20;;;;;;;7.30;65.69;99058.72;10399115;28;20053;-78
2022/09/29 21:50:00;;;;;;;6.15;3.70;;;;;;;7.34;65.75;99057.59;10397233;28;20219;-77
2022/09/29 21:55:02;;;;;;;8.95;4.70;;;;;;;7.38;65.70;99067.72;10415272;28;20064;-79
2022/09/29 22:00:04;;;;;;;9.63;4.63;;;;;;;7.35;65.74;99060.09;10411134;28;20051;-78
2022/09/29 22:05:06;;;;;;;30.63;6.90;;;;;;;7.33;65.42;99066.31;10397566;28;20053;-77
2022/09/29 22:10:08;;;;;;;7.85;5.05;;;;;;;7.26;65.57;99065.03;10415317;28;20144;-78
2022/09/29 22:15:10;;;;;;;13.10;5.05;;;;;;;7.22;65.43;99069.59;10413514;28;20056;-78
2022/09/29 22:20:12;;;;;;;9.05;4.70;;;;;;;7.16;65.35;99069.94;10395817;28;20053;-78
2022/09/29 22:25:13;;;;;;;12.18;4.82;;;;;;;7.10;65.30;99080.72;10394755;28;20060;-77
2022/09/29 22:30:15;;;;;;;8.88;4.00;;;;;;;7.02;65.28;99082.94;10418231;28;20061;-78
2022/09/29 22:35:19;;;;;;;11.60;4.57;;;;;;;6.97;65.26;99085.78;10403967;28;20053;-78
2022/09/29 22:40:21;;;;;;;24.73;5.45;;;;;;;6.91;65.29;99101.75;10418963;28;20050;-78
2022/09/29 22:45:23;;;;;;;79.45;7.57;;;;;;;6.81;65.52;99098.00;10420828;28;20056;-78
2022/09/29 22:50:27;;;;;;;8.52;5.18;;;;;;;6.74;65.59;99103.63;10419447;28;20056;-78
2022/09/29 22:55:30;;;;;;;10.48;4.90;;;;;;;6.65;65.60;99104.16;10422796;28;20494;-78
2022/09/29 23:00:32;;;;;;;10.00;4.78;;;;;;;6.59;65.36;99112.31;10418142;28;20050;-78
2022/09/29 23:05:34;;;;;;;12.88;6.07;;;;;;;6.55;65.97;99103.00;10418685;28;20099;-78
2022/09/29 23:10:36;;;;;;;6.88;4.10;;;;;;;6.57;65.46;99106.34;10419016;28;20049;-78
2022/09/29 23:22:04;;;;;;;21.55;5.13;;;;;;;6.59;65.85;99114.91;10418774;28;20045;-78
2022/09/29 23:27:06;;;;;;;352.75;11.80;;;;;;;6.62;65.70;99130.31;10401763;28;20061;-78
2022/09/29 23:32:08;;;;;;;31.65;5.25;;;;;;;6.54;66.05;99125.53;10401735;28;20058;-78
2022/09/29 23:37:10;;;;;;;120.30;10.57;;;;;;;6.44;66.49;99134.78;10416106;28;20544;-78
2022/09/29 23:42:13;;;;;;;120.35;8.77;;;;;;;6.48;66.56;99127.63;10417880;28;20525;-78
2022/09/29 23:47:15;;;;;;;27.27;6.10;;;;;;;6.56;66.54;99126.28;10419300;28;20061;-78
2022/09/29 23:52:16;;;;;;;20.88;4.93;;;;;;;6.54;66.57;99132.50;10418764;28;20053;-78
2022/09/29 23:57:18;;;;;;;125.97;6.57;;;;;;;6.49;66.33;99130.16;10417021;28;20057;-78
